sensor_id;sensor_type;location;lat;lon;timestamp;temperature;humidity
16964;DHT22;8598;50.508;10.436;2023-04-19T00:00:46;8.80;99.90
16964;DHT22;8598;50.508;10.436;2023-04-19T00:03:13;8.80;99.90
16964;DHT22;8598;50.508;10.436;2023-04-19T00:05:41;8.80;99.90
16964;DHT22;8598;50.508;10.436;2023-04-19T00:08:08;8.80;99.90
16964;DHT22;8598;50.508;10.436;2023-04-19T00:10:35;8.80;99.90
16964;DHT22;8598;50.508;10.436;2023-04-19T00:13:03;8.90;99.90
16964;DHT22;8598;50.508;10.436;2023-04-19T00:15:30;9.00;99.90
16964;DHT22;8598;50.508;10.436;2023-04-19T00:17:58;9.00;99.90
16964;DHT22;8598;50.508;10.436;2023-04-19T00:20:25;9.00;99.90
16964;DHT22;8598;50.508;10.436;2023-04-19T00:22:52;9.10;99.90
16964;DHT22;8598;50.508;10.436;2023-04-19T00:25:19;9.10;99.90
16964;DHT22;8598;50.508;10.436;2023-04-19T00:27:45;9.10;99.90
16964;DHT22;8598;50.508;10.436;2023-04-19T00:30:12;9.10;99.90
16964;DHT22;8598;50.508;10.436;2023-04-19T00:32:39;9.10;99.90
16964;DHT22;8598;50.508;10.436;2023-04-19T00:35:08;9.10;99.90
16964;DHT22;8598;50.508;10.436;2023-04-19T00:37:34;9.10;99.90
16964;DHT22;8598;50.508;10.436;2023-04-19T00:40:01;9.20;99.90
16964;DHT22;8598;50.508;10.436;2023-04-19T00:42:28;9.20;99.90
16964;DHT22;8598;50.508;10.436;2023-04-19T00:44:55;9.20;99.90
16964;DHT22;8598;50.508;10.436;2023-04-19T00:47:21;9.20;99.90
16964;DHT22;8598;50.508;10.436;2023-04-19T00:49:48;9.20;99.90
16964;DHT22;8598;50.508;10.436;2023-04-19T00:52:16;9.20;99.90
16964;DHT22;8598;50.508;10.436;2023-04-19T00:54:44;9.20;99.90
16964;DHT22;8598;50.508;10.436;2023-04-19T00:57:11;9.20;99.90
16964;DHT22;8598;50.508;10.436;2023-04-19T00:59:38;9.20;99.90
16964;DHT22;8598;50.508;10.436;2023-04-19T01:02:05;9.20;99.90
16964;DHT22;8598;50.508;10.436;2023-04-19T01:04:32;9.10;99.90
16964;DHT22;8598;50.508;10.436;2023-04-19T01:06:58;9.10;99.90
16964;DHT22;8598;50.508;10.436;2023-04-19T01:09:26;9.10;99.90
16964;DHT22;8598;50.508;10.436;2023-04-19T01:11:53;9.10;99.90
16964;DHT22;8598;50.508;10.436;2023-04-19T01:14:19;9.10;99.90
16964;DHT22;8598;50.508;10.436;2023-04-19T01:16:46;9.10;99.90
16964;DHT22;8598;50.508;10.436;2023-04-19T01:19:13;9.10;99.90
16964;DHT22;8598;50.508;10.436;2023-04-19T01:21:41;9.20;99.90
16964;DHT22;8598;50.508;10.436;2023-04-19T01:24:09;9.20;99.90
16964;DHT22;8598;50.508;10.436;2023-04-19T01:26:36;9.10;99.90
16964;DHT22;8598;50.508;10.436;2023-04-19T01:29:02;9.10;99.90
16964;DHT22;8598;50.508;10.436;2023-04-19T01:31:29;9.20;99.90
16964;DHT22;8598;50.508;10.436;2023-04-19T01:33:56;9.20;99.90
16964;DHT22;8598;50.508;10.436;2023-04-19T01:36:22;9.20;99.90
16964;DHT22;8598;50.508;10.436;2023-04-19T01:38:49;9.20;99.90
16964;DHT22;8598;50.508;10.436;2023-04-19T01:41:17;9.20;99.90
16964;DHT22;8598;50.508;10.436;2023-04-19T01:43:44;9.10;99.90
16964;DHT22;8598;50.508;10.436;2023-04-19T01:46:11;9.10;99.90
16964;DHT22;8598;50.508;10.436;2023-04-19T01:48:38;9.10;99.90
16964;DHT22;8598;50.508;10.436;2023-04-19T01:51:04;9.10;99.90
16964;DHT22;8598;50.508;10.436;2023-04-19T01:53:31;9.10;99.90
16964;DHT22;8598;50.508;10.436;2023-04-19T01:55:57;9.10;99.90
16964;DHT22;8598;50.508;10.436;2023-04-19T01:58:25;9.10;99.90
16964;DHT22;8598;50.508;10.436;2023-04-19T02:00:52;9.10;99.90
16964;DHT22;8598;50.508;10.436;2023-04-19T02:03:19;9.10;99.90
16964;DHT22;8598;50.508;10.436;2023-04-19T02:05:45;9.10;99.90
16964;DHT22;8598;50.508;10.436;2023-04-19T02:08:12;9.00;99.90
16964;DHT22;8598;50.508;10.436;2023-04-19T02:10:38;9.00;99.90
16964;DHT22;8598;50.508;10.436;2023-04-19T02:13:05;8.90;99.90
16964;DHT22;8598;50.508;10.436;2023-04-19T02:15:35;8.90;99.90
16964;DHT22;8598;50.508;10.436;2023-04-19T02:18:01;8.90;99.90
16964;DHT22;8598;50.508;10.436;2023-04-19T02:20:30;8.80;99.90
16964;DHT22;8598;50.508;10.436;2023-04-19T02:22:57;8.80;99.90
16964;DHT22;8598;50.508;10.436;2023-04-19T02:25:24;8.80;99.90
16964;DHT22;8598;50.508;10.436;2023-04-19T02:27:50;8.80;99.90
16964;DHT22;8598;50.508;10.436;2023-04-19T02:30:18;8.80;99.90
16964;DHT22;8598;50.508;10.436;2023-04-19T02:32:47;8.80;99.90
16964;DHT22;8598;50.508;10.436;2023-04-19T02:35:14;8.70;99.90
16964;DHT22;8598;50.508;10.436;2023-04-19T02:37:41;8.70;99.90
16964;DHT22;8598;50.508;10.436;2023-04-19T02:40:08;8.70;99.90
16964;DHT22;8598;50.508;10.436;2023-04-19T02:42:35;8.70;99.90
16964;DHT22;8598;50.508;10.436;2023-04-19T02:45:02;8.70;99.90
16964;DHT22;8598;50.508;10.436;2023-04-19T02:47:28;8.70;99.90
16964;DHT22;8598;50.508;10.436;2023-04-19T02:49:56;8.70;99.90
16964;DHT22;8598;50.508;10.436;2023-04-19T02:52:25;8.70;99.90
16964;DHT22;8598;50.508;10.436;2023-04-19T02:54:52;8.70;99.90
16964;DHT22;8598;50.508;10.436;2023-04-19T02:57:18;8.70;99.90
16964;DHT22;8598;50.508;10.436;2023-04-19T02:59:45;8.70;99.90
16964;DHT22;8598;50.508;10.436;2023-04-19T03:02:12;8.70;99.90
16964;DHT22;8598;50.508;10.436;2023-04-19T03:04:38;8.60;99.90
16964;DHT22;8598;50.508;10.436;2023-04-19T03:07:08;8.60;99.90
16964;DHT22;8598;50.508;10.436;2023-04-19T03:09:35;8.60;99.90
16964;DHT22;8598;50.508;10.436;2023-04-19T03:12:01;8.60;99.90
16964;DHT22;8598;50.508;10.436;2023-04-19T03:14:28;8.50;99.90
16964;DHT22;8598;50.508;10.436;2023-04-19T03:16:55;8.50;99.90
16964;DHT22;8598;50.508;10.436;2023-04-19T03:19:21;8.50;99.90
16964;DHT22;8598;50.508;10.436;2023-04-19T03:21:48;8.40;99.90
16964;DHT22;8598;50.508;10.436;2023-04-19T03:24:17;8.40;99.90
16964;DHT22;8598;50.508;10.436;2023-04-19T03:26:44;8.40;99.90
16964;DHT22;8598;50.508;10.436;2023-04-19T03:29:12;8.30;99.90
16964;DHT22;8598;50.508;10.436;2023-04-19T03:31:39;8.20;99.90
16964;DHT22;8598;50.508;10.436;2023-04-19T03:34:06;8.30;99.90
16964;DHT22;8598;50.508;10.436;2023-04-19T03:36:32;8.20;99.90
16964;DHT22;8598;50.508;10.436;2023-04-19T03:38:59;8.20;99.90
16964;DHT22;8598;50.508;10.436;2023-04-19T03:41:27;8.10;99.90
16964;DHT22;8598;50.508;10.436;2023-04-19T03:43:54;8.10;99.90
16964;DHT22;8598;50.508;10.436;2023-04-19T03:46:22;8.00;99.90
16964;DHT22;8598;50.508;10.436;2023-04-19T03:48:48;8.00;99.90
16964;DHT22;8598;50.508;10.436;2023-04-19T03:51:15;8.00;99.90
16964;DHT22;8598;50.508;10.436;2023-04-19T03:53:42;8.00;99.90
16964;DHT22;8598;50.508;10.436;2023-04-19T03:56:09;8.00;99.90
16964;DHT22;8598;50.508;10.436;2023-04-19T03:58:37;7.90;99.90
16964;DHT22;8598;50.508;10.436;2023-04-19T04:01:03;7.90;99.90
16964;DHT22;8598;50.508;10.436;2023-04-19T04:03:31;7.90;99.90
16964;DHT22;8598;50.508;10.436;2023-04-19T04:05:58;7.80;99.90
16964;DHT22;8598;50.508;10.436;2023-04-19T04:08:24;7.80;99.90
16964;DHT22;8598;50.508;10.436;2023-04-19T04:10:52;7.80;99.90
16964;DHT22;8598;50.508;10.436;2023-04-19T04:13:19;7.80;99.90
16964;DHT22;8598;50.508;10.436;2023-04-19T04:15:47;7.80;99.90
16964;DHT22;8598;50.508;10.436;2023-04-19T04:18:14;7.70;99.90
16964;DHT22;8598;50.508;10.436;2023-04-19T04:20:42;7.80;99.90
16964;DHT22;8598;50.508;10.436;2023-04-19T04:23:09;7.70;99.90
16964;DHT22;8598;50.508;10.436;2023-04-19T04:25:35;7.70;99.90
16964;DHT22;8598;50.508;10.436;2023-04-19T04:28:03;7.60;99.90
16964;DHT22;8598;50.508;10.436;2023-04-19T04:30:30;7.60;99.90
16964;DHT22;8598;50.508;10.436;2023-04-19T04:32:59;7.60;99.90
16964;DHT22;8598;50.508;10.436;2023-04-19T04:35:26;7.60;99.90
16964;DHT22;8598;50.508;10.436;2023-04-19T04:37:54;7.50;99.90
16964;DHT22;8598;50.508;10.436;2023-04-19T04:40:21;7.60;99.90
16964;DHT22;8598;50.508;10.436;2023-04-19T04:42:47;7.50;99.90
16964;DHT22;8598;50.508;10.436;2023-04-19T04:45:17;7.60;99.90
16964;DHT22;8598;50.508;10.436;2023-04-19T04:47:44;7.50;99.90
16964;DHT22;8598;50.508;10.436;2023-04-19T04:50:12;7.50;99.90
16964;DHT22;8598;50.508;10.436;2023-04-19T04:52:39;7.50;99.90
16964;DHT22;8598;50.508;10.436;2023-04-19T04:55:06;7.50;99.90
16964;DHT22;8598;50.508;10.436;2023-04-19T04:57:33;7.50;99.90
16964;DHT22;8598;50.508;10.436;2023-04-19T05:00:00;7.40;99.90
16964;DHT22;8598;50.508;10.436;2023-04-19T05:02:26;7.40;99.90
16964;DHT22;8598;50.508;10.436;2023-04-19T05:04:53;7.40;99.90
16964;DHT22;8598;50.508;10.436;2023-04-19T05:07:21;7.40;99.90
16964;DHT22;8598;50.508;10.436;2023-04-19T05:09:48;7.40;99.90
16964;DHT22;8598;50.508;10.436;2023-04-19T05:12:14;7.40;99.90
16964;DHT22;8598;50.508;10.436;2023-04-19T05:14:41;7.40;99.90
16964;DHT22;8598;50.508;10.436;2023-04-19T05:17:07;7.40;99.90
16964;DHT22;8598;50.508;10.436;2023-04-19T05:19:34;7.30;99.90
16964;DHT22;8598;50.508;10.436;2023-04-19T05:22:00;7.30;99.90
16964;DHT22;8598;50.508;10.436;2023-04-19T05:24:28;7.30;99.90
16964;DHT22;8598;50.508;10.436;2023-04-19T05:26:55;7.30;99.90
16964;DHT22;8598;50.508;10.436;2023-04-19T05:29:22;7.40;99.90
16964;DHT22;8598;50.508;10.436;2023-04-19T05:31:48;7.50;99.90
16964;DHT22;8598;50.508;10.436;2023-04-19T05:34:15;7.50;99.90
16964;DHT22;8598;50.508;10.436;2023-04-19T05:36:42;7.50;99.90
16964;DHT22;8598;50.508;10.436;2023-04-19T05:39:09;7.60;99.90
16964;DHT22;8598;50.508;10.436;2023-04-19T05:41:36;7.70;99.90
16964;DHT22;8598;50.508;10.436;2023-04-19T05:44:03;7.70;99.90
16964;DHT22;8598;50.508;10.436;2023-04-19T05:46:30;7.60;99.90
16964;DHT22;8598;50.508;10.436;2023-04-19T05:48:57;7.60;99.90
16964;DHT22;8598;50.508;10.436;2023-04-19T05:51:23;7.70;99.90
16964;DHT22;8598;50.508;10.436;2023-04-19T05:53:51;7.70;99.90
16964;DHT22;8598;50.508;10.436;2023-04-19T05:56:18;7.80;99.90
16964;DHT22;8598;50.508;10.436;2023-04-19T05:58:46;7.90;99.90
16964;DHT22;8598;50.508;10.436;2023-04-19T06:01:13;7.60;99.90
16964;DHT22;8598;50.508;10.436;2023-04-19T06:03:39;7.60;99.90
16964;DHT22;8598;50.508;10.436;2023-04-19T06:06:06;7.50;99.90
16964;DHT22;8598;50.508;10.436;2023-04-19T06:08:33;7.40;99.90
16964;DHT22;8598;50.508;10.436;2023-04-19T06:11:00;7.40;99.90
16964;DHT22;8598;50.508;10.436;2023-04-19T06:13:26;7.60;99.90
16964;DHT22;8598;50.508;10.436;2023-04-19T06:15:54;7.70;99.90
16964;DHT22;8598;50.508;10.436;2023-04-19T06:18:21;8.00;99.90
16964;DHT22;8598;50.508;10.436;2023-04-19T06:20:47;8.70;99.90
16964;DHT22;8598;50.508;10.436;2023-04-19T06:23:14;9.20;99.90
16964;DHT22;8598;50.508;10.436;2023-04-19T06:25:42;9.70;99.90
16964;DHT22;8598;50.508;10.436;2023-04-19T06:28:09;10.10;99.90
16964;DHT22;8598;50.508;10.436;2023-04-19T06:30:36;10.60;99.90
16964;DHT22;8598;50.508;10.436;2023-04-19T06:33:04;10.90;99.90
16964;DHT22;8598;50.508;10.436;2023-04-19T06:35:31;9.70;99.90
16964;DHT22;8598;50.508;10.436;2023-04-19T06:37:58;10.30;99.90
16964;DHT22;8598;50.508;10.436;2023-04-19T06:40:25;10.10;99.90
16964;DHT22;8598;50.508;10.436;2023-04-19T06:42:53;10.20;99.90
16964;DHT22;8598;50.508;10.436;2023-04-19T06:45:20;10.70;99.90
16964;DHT22;8598;50.508;10.436;2023-04-19T06:47:46;10.90;99.90
16964;DHT22;8598;50.508;10.436;2023-04-19T06:50:14;11.30;99.90
16964;DHT22;8598;50.508;10.436;2023-04-19T06:52:41;11.80;99.90
16964;DHT22;8598;50.508;10.436;2023-04-19T06:55:08;12.10;99.90
16964;DHT22;8598;50.508;10.436;2023-04-19T06:57:35;11.60;99.90
16964;DHT22;8598;50.508;10.436;2023-04-19T07:00:02;12.60;99.90
16964;DHT22;8598;50.508;10.436;2023-04-19T07:02:31;12.90;99.90
16964;DHT22;8598;50.508;10.436;2023-04-19T07:04:57;13.20;99.90
16964;DHT22;8598;50.508;10.436;2023-04-19T07:07:25;12.70;99.90
16964;DHT22;8598;50.508;10.436;2023-04-19T07:09:52;13.00;99.90
16964;DHT22;8598;50.508;10.436;2023-04-19T07:12:18;12.80;99.90
16964;DHT22;8598;50.508;10.436;2023-04-19T07:14:45;12.80;99.90
16964;DHT22;8598;50.508;10.436;2023-04-19T07:17:11;11.90;99.90
16964;DHT22;8598;50.508;10.436;2023-04-19T07:19:38;11.10;99.90
16964;DHT22;8598;50.508;10.436;2023-04-19T07:22:05;10.40;99.90
16964;DHT22;8598;50.508;10.436;2023-04-19T07:24:33;10.50;99.90
16964;DHT22;8598;50.508;10.436;2023-04-19T07:27:00;10.90;99.90
16964;DHT22;8598;50.508;10.436;2023-04-19T07:29:26;11.20;99.90
16964;DHT22;8598;50.508;10.436;2023-04-19T07:31:53;11.00;99.90
16964;DHT22;8598;50.508;10.436;2023-04-19T07:34:20;11.10;99.90
16964;DHT22;8598;50.508;10.436;2023-04-19T07:36:46;10.70;99.90
16964;DHT22;8598;50.508;10.436;2023-04-19T07:39:13;10.10;99.90
16964;DHT22;8598;50.508;10.436;2023-04-19T07:41:41;10.00;99.90
16964;DHT22;8598;50.508;10.436;2023-04-19T07:44:07;10.80;99.90
16964;DHT22;8598;50.508;10.436;2023-04-19T07:46:35;11.60;99.90
16964;DHT22;8598;50.508;10.436;2023-04-19T07:49:02;11.10;99.90
16964;DHT22;8598;50.508;10.436;2023-04-19T07:51:29;10.60;99.90
16964;DHT22;8598;50.508;10.436;2023-04-19T07:53:56;10.00;99.90
16964;DHT22;8598;50.508;10.436;2023-04-19T07:56:22;9.80;99.90
16964;DHT22;8598;50.508;10.436;2023-04-19T07:58:52;10.10;99.90
16964;DHT22;8598;50.508;10.436;2023-04-19T08:01:18;9.80;99.90
16964;DHT22;8598;50.508;10.436;2023-04-19T08:03:45;10.10;99.90
16964;DHT22;8598;50.508;10.436;2023-04-19T08:06:12;10.60;99.90
16964;DHT22;8598;50.508;10.436;2023-04-19T08:08:38;10.50;99.90
16964;DHT22;8598;50.508;10.436;2023-04-19T08:11:05;9.90;99.90
16964;DHT22;8598;50.508;10.436;2023-04-19T08:13:31;9.00;99.90
16964;DHT22;8598;50.508;10.436;2023-04-19T08:15:59;8.70;99.90
16964;DHT22;8598;50.508;10.436;2023-04-19T08:18:26;8.60;99.90
16964;DHT22;8598;50.508;10.436;2023-04-19T08:20:53;8.90;99.90
16964;DHT22;8598;50.508;10.436;2023-04-19T08:23:20;8.90;99.90
16964;DHT22;8598;50.508;10.436;2023-04-19T08:25:47;9.70;99.90
16964;DHT22;8598;50.508;10.436;2023-04-19T08:28:14;10.40;99.90
16964;DHT22;8598;50.508;10.436;2023-04-19T08:30:40;10.40;99.90
16964;DHT22;8598;50.508;10.436;2023-04-19T08:33:08;10.60;99.90
16964;DHT22;8598;50.508;10.436;2023-04-19T08:35:37;10.90;99.90
16964;DHT22;8598;50.508;10.436;2023-04-19T08:38:05;11.00;99.90
16964;DHT22;8598;50.508;10.436;2023-04-19T08:40:32;11.70;99.90
16964;DHT22;8598;50.508;10.436;2023-04-19T08:43:00;11.30;99.90
16964;DHT22;8598;50.508;10.436;2023-04-19T08:45:30;11.40;99.90
16964;DHT22;8598;50.508;10.436;2023-04-19T08:47:58;11.20;99.90
16964;DHT22;8598;50.508;10.436;2023-04-19T08:50:28;11.30;99.90
16964;DHT22;8598;50.508;10.436;2023-04-19T08:52:57;11.30;99.90
16964;DHT22;8598;50.508;10.436;2023-04-19T08:55:25;11.10;99.90
16964;DHT22;8598;50.508;10.436;2023-04-19T08:57:53;11.20;99.90
16964;DHT22;8598;50.508;10.436;2023-04-19T09:00:20;10.70;99.90
16964;DHT22;8598;50.508;10.436;2023-04-19T09:02:48;10.50;99.90
16964;DHT22;8598;50.508;10.436;2023-04-19T09:05:15;10.50;99.90
16964;DHT22;8598;50.508;10.436;2023-04-19T09:07:45;10.70;99.90
16964;DHT22;8598;50.508;10.436;2023-04-19T09:10:14;10.30;99.90
16964;DHT22;8598;50.508;10.436;2023-04-19T09:12:41;10.10;99.90
16964;DHT22;8598;50.508;10.436;2023-04-19T09:15:08;10.10;99.90
16964;DHT22;8598;50.508;10.436;2023-04-19T09:17:36;9.80;99.90
16964;DHT22;8598;50.508;10.436;2023-04-19T09:20:04;10.30;99.90
16964;DHT22;8598;50.508;10.436;2023-04-19T09:22:32;10.30;99.90
16964;DHT22;8598;50.508;10.436;2023-04-19T09:25:00;10.40;99.90
16964;DHT22;8598;50.508;10.436;2023-04-19T09:27:28;10.70;99.90
16964;DHT22;8598;50.508;10.436;2023-04-19T09:29:56;10.60;99.90
16964;DHT22;8598;50.508;10.436;2023-04-19T09:32:24;10.80;99.90
16964;DHT22;8598;50.508;10.436;2023-04-19T09:34:52;11.00;99.90
16964;DHT22;8598;50.508;10.436;2023-04-19T09:37:19;11.20;99.90
16964;DHT22;8598;50.508;10.436;2023-04-19T09:39:46;10.70;99.90
16964;DHT22;8598;50.508;10.436;2023-04-19T09:42:14;11.00;99.90
16964;DHT22;8598;50.508;10.436;2023-04-19T09:44:54;11.20;99.90
16964;DHT22;8598;50.508;10.436;2023-04-19T09:47:22;11.10;99.90
16964;DHT22;8598;50.508;10.436;2023-04-19T09:50:05;11.10;99.90
16964;DHT22;8598;50.508;10.436;2023-04-19T09:52:32;11.00;99.90
16964;DHT22;8598;50.508;10.436;2023-04-19T09:54:59;11.20;99.90
16964;DHT22;8598;50.508;10.436;2023-04-19T09:57:28;11.50;99.90
16964;DHT22;8598;50.508;10.436;2023-04-19T09:59:54;11.40;99.90
16964;DHT22;8598;50.508;10.436;2023-04-19T10:02:21;11.20;99.90
16964;DHT22;8598;50.508;10.436;2023-04-19T10:04:49;11.30;99.90
16964;DHT22;8598;50.508;10.436;2023-04-19T10:07:17;11.40;99.90
16964;DHT22;8598;50.508;10.436;2023-04-19T10:09:45;11.50;99.90
16964;DHT22;8598;50.508;10.436;2023-04-19T10:12:14;11.70;99.90
16964;DHT22;8598;50.508;10.436;2023-04-19T10:14:42;11.40;99.90
16964;DHT22;8598;50.508;10.436;2023-04-19T10:17:09;11.50;99.90
16964;DHT22;8598;50.508;10.436;2023-04-19T10:19:36;11.40;99.90
16964;DHT22;8598;50.508;10.436;2023-04-19T10:22:04;11.40;99.90
16964;DHT22;8598;50.508;10.436;2023-04-19T10:24:32;11.20;99.90
16964;DHT22;8598;50.508;10.436;2023-04-19T10:27:08;11.30;99.90
16964;DHT22;8598;50.508;10.436;2023-04-19T10:30:01;11.50;99.90
16964;DHT22;8598;50.508;10.436;2023-04-19T10:32:38;11.30;99.90
16964;DHT22;8598;50.508;10.436;2023-04-19T10:35:09;11.20;99.90
16964;DHT22;8598;50.508;10.436;2023-04-19T10:37:39;11.20;99.90
16964;DHT22;8598;50.508;10.436;2023-04-19T10:40:08;11.30;99.90
16964;DHT22;8598;50.508;10.436;2023-04-19T10:43:14;11.10;99.90
16964;DHT22;8598;50.508;10.436;2023-04-19T10:45:43;10.90;99.90
16964;DHT22;8598;50.508;10.436;2023-04-19T10:48:31;11.20;99.90
16964;DHT22;8598;50.508;10.436;2023-04-19T10:51:00;11.10;99.90
16964;DHT22;8598;50.508;10.436;2023-04-19T10:53:48;11.00;99.90
16964;DHT22;8598;50.508;10.436;2023-04-19T10:56:16;11.00;99.90
16964;DHT22;8598;50.508;10.436;2023-04-19T10:59:12;10.90;99.90
16964;DHT22;8598;50.508;10.436;2023-04-19T11:01:49;10.90;99.90
16964;DHT22;8598;50.508;10.436;2023-04-19T11:04:16;10.80;99.90
16964;DHT22;8598;50.508;10.436;2023-04-19T11:06:58;10.70;99.90
16964;DHT22;8598;50.508;10.436;2023-04-19T11:09:27;11.10;99.90
16964;DHT22;8598;50.508;10.436;2023-04-19T11:11:57;11.60;99.90
16964;DHT22;8598;50.508;10.436;2023-04-19T11:14:24;11.60;99.90
16964;DHT22;8598;50.508;10.436;2023-04-19T11:16:53;11.30;99.90
16964;DHT22;8598;50.508;10.436;2023-04-19T11:19:19;11.10;99.90
16964;DHT22;8598;50.508;10.436;2023-04-19T11:21:47;11.20;99.90
16964;DHT22;8598;50.508;10.436;2023-04-19T11:24:14;11.20;99.90
16964;DHT22;8598;50.508;10.436;2023-04-19T11:26:43;11.00;99.90
16964;DHT22;8598;50.508;10.436;2023-04-19T11:29:10;11.00;99.90
16964;DHT22;8598;50.508;10.436;2023-04-19T11:31:36;10.80;99.90
16964;DHT22;8598;50.508;10.436;2023-04-19T11:34:05;11.10;99.90
16964;DHT22;8598;50.508;10.436;2023-04-19T11:36:31;11.20;99.90
16964;DHT22;8598;50.508;10.436;2023-04-19T11:39:01;11.10;99.90
16964;DHT22;8598;50.508;10.436;2023-04-19T11:41:36;11.00;99.90
16964;DHT22;8598;50.508;10.436;2023-04-19T11:44:03;11.00;99.90
16964;DHT22;8598;50.508;10.436;2023-04-19T11:46:30;11.00;99.90
16964;DHT22;8598;50.508;10.436;2023-04-19T11:48:57;11.20;99.90
16964;DHT22;8598;50.508;10.436;2023-04-19T11:51:25;11.30;99.90
16964;DHT22;8598;50.508;10.436;2023-04-19T11:53:52;11.20;99.90
16964;DHT22;8598;50.508;10.436;2023-04-19T11:56:18;11.10;99.90
16964;DHT22;8598;50.508;10.436;2023-04-19T11:58:46;11.30;99.90
16964;DHT22;8598;50.508;10.436;2023-04-19T12:01:14;11.70;99.90
16964;DHT22;8598;50.508;10.436;2023-04-19T12:03:44;11.70;99.90
16964;DHT22;8598;50.508;10.436;2023-04-19T12:06:12;11.70;99.90
16964;DHT22;8598;50.508;10.436;2023-04-19T12:08:44;12.10;99.90
16964;DHT22;8598;50.508;10.436;2023-04-19T12:11:13;12.20;99.90
16964;DHT22;8598;50.508;10.436;2023-04-19T12:13:40;12.10;99.90
16964;DHT22;8598;50.508;10.436;2023-04-19T12:16:09;12.00;99.90
16964;DHT22;8598;50.508;10.436;2023-04-19T12:18:43;11.90;99.90
16964;DHT22;8598;50.508;10.436;2023-04-19T12:21:11;11.90;99.90
16964;DHT22;8598;50.508;10.436;2023-04-19T12:23:53;12.20;99.90
16964;DHT22;8598;50.508;10.436;2023-04-19T12:26:19;12.50;99.90
16964;DHT22;8598;50.508;10.436;2023-04-19T12:28:46;12.20;99.90
16964;DHT22;8598;50.508;10.436;2023-04-19T12:31:13;12.00;99.90
16964;DHT22;8598;50.508;10.436;2023-04-19T12:33:40;11.70;99.90
16964;DHT22;8598;50.508;10.436;2023-04-19T12:36:07;11.70;99.90
16964;DHT22;8598;50.508;10.436;2023-04-19T12:38:34;11.50;99.90
16964;DHT22;8598;50.508;10.436;2023-04-19T12:41:03;11.70;99.90
16964;DHT22;8598;50.508;10.436;2023-04-19T12:43:30;11.90;99.90
16964;DHT22;8598;50.508;10.436;2023-04-19T12:45:56;11.80;99.90
16964;DHT22;8598;50.508;10.436;2023-04-19T12:48:23;11.60;99.90
16964;DHT22;8598;50.508;10.436;2023-04-19T12:50:50;11.60;99.90
16964;DHT22;8598;50.508;10.436;2023-04-19T12:53:17;11.60;99.90
16964;DHT22;8598;50.508;10.436;2023-04-19T12:55:44;11.60;99.90
16964;DHT22;8598;50.508;10.436;2023-04-19T12:58:13;11.60;99.90
16964;DHT22;8598;50.508;10.436;2023-04-19T13:00:40;11.80;99.90
16964;DHT22;8598;50.508;10.436;2023-04-19T13:03:07;11.90;99.90
16964;DHT22;8598;50.508;10.436;2023-04-19T13:05:34;11.70;99.90
16964;DHT22;8598;50.508;10.436;2023-04-19T13:08:00;11.60;99.90
16964;DHT22;8598;50.508;10.436;2023-04-19T13:10:27;11.60;99.90
16964;DHT22;8598;50.508;10.436;2023-04-19T13:12:54;11.40;99.90
16964;DHT22;8598;50.508;10.436;2023-04-19T13:15:22;11.60;99.90
16964;DHT22;8598;50.508;10.436;2023-04-19T13:17:49;11.50;99.90
16964;DHT22;8598;50.508;10.436;2023-04-19T13:20:16;11.50;99.90
16964;DHT22;8598;50.508;10.436;2023-04-19T13:22:43;11.40;99.90
16964;DHT22;8598;50.508;10.436;2023-04-19T13:25:10;11.50;99.90
16964;DHT22;8598;50.508;10.436;2023-04-19T13:27:36;11.50;99.90
16964;DHT22;8598;50.508;10.436;2023-04-19T13:30:04;11.60;99.90
16964;DHT22;8598;50.508;10.436;2023-04-19T13:32:32;11.30;99.90
16964;DHT22;8598;50.508;10.436;2023-04-19T13:34:59;11.10;99.90
16964;DHT22;8598;50.508;10.436;2023-04-19T13:37:26;10.90;99.90
16964;DHT22;8598;50.508;10.436;2023-04-19T13:39:52;10.70;99.90
16964;DHT22;8598;50.508;10.436;2023-04-19T13:42:19;10.70;99.90
16964;DHT22;8598;50.508;10.436;2023-04-19T13:44:47;10.80;99.90
16964;DHT22;8598;50.508;10.436;2023-04-19T13:47:13;11.20;99.90
16964;DHT22;8598;50.508;10.436;2023-04-19T13:49:41;11.30;99.90
16964;DHT22;8598;50.508;10.436;2023-04-19T13:52:08;11.30;99.90
16964;DHT22;8598;50.508;10.436;2023-04-19T13:54:36;11.20;99.90
16964;DHT22;8598;50.508;10.436;2023-04-19T13:57:02;11.40;99.90
16964;DHT22;8598;50.508;10.436;2023-04-19T13:59:29;11.60;99.90
16964;DHT22;8598;50.508;10.436;2023-04-19T14:01:56;11.60;99.90
16964;DHT22;8598;50.508;10.436;2023-04-19T14:04:22;11.30;99.90
16964;DHT22;8598;50.508;10.436;2023-04-19T14:06:50;11.10;99.90
16964;DHT22;8598;50.508;10.436;2023-04-19T14:09:17;11.40;99.90
16964;DHT22;8598;50.508;10.436;2023-04-19T14:11:43;11.90;99.90
16964;DHT22;8598;50.508;10.436;2023-04-19T14:14:10;12.10;99.90
16964;DHT22;8598;50.508;10.436;2023-04-19T14:16:36;12.00;99.90
16964;DHT22;8598;50.508;10.436;2023-04-19T14:19:03;11.70;99.90
16964;DHT22;8598;50.508;10.436;2023-04-19T14:21:30;11.30;99.90
16964;DHT22;8598;50.508;10.436;2023-04-19T14:23:58;11.00;99.90
16964;DHT22;8598;50.508;10.436;2023-04-19T14:26:24;10.80;99.90
16964;DHT22;8598;50.508;10.436;2023-04-19T14:28:51;10.80;99.90
16964;DHT22;8598;50.508;10.436;2023-04-19T14:31:18;11.00;99.90
16964;DHT22;8598;50.508;10.436;2023-04-19T14:33:44;11.20;99.90
16964;DHT22;8598;50.508;10.436;2023-04-19T14:36:11;11.60;99.90
16964;DHT22;8598;50.508;10.436;2023-04-19T14:38:37;11.80;99.90
16964;DHT22;8598;50.508;10.436;2023-04-19T14:41:05;11.80;99.90
16964;DHT22;8598;50.508;10.436;2023-04-19T14:43:32;11.60;99.90
16964;DHT22;8598;50.508;10.436;2023-04-19T14:45:59;11.50;99.90
16964;DHT22;8598;50.508;10.436;2023-04-19T14:48:26;11.50;99.90
16964;DHT22;8598;50.508;10.436;2023-04-19T14:50:52;11.80;99.90
16964;DHT22;8598;50.508;10.436;2023-04-19T14:53:19;11.10;99.90
16964;DHT22;8598;50.508;10.436;2023-04-19T14:55:45;11.00;99.90
16964;DHT22;8598;50.508;10.436;2023-04-19T14:58:13;10.70;99.90
16964;DHT22;8598;50.508;10.436;2023-04-19T15:00:40;10.70;99.90
16964;DHT22;8598;50.508;10.436;2023-04-19T15:03:07;10.60;99.90
16964;DHT22;8598;50.508;10.436;2023-04-19T15:05:34;10.70;99.90
16964;DHT22;8598;50.508;10.436;2023-04-19T15:08:01;10.90;99.90
16964;DHT22;8598;50.508;10.436;2023-04-19T15:10:27;11.10;99.90
16964;DHT22;8598;50.508;10.436;2023-04-19T15:12:54;11.30;99.90
16964;DHT22;8598;50.508;10.436;2023-04-19T15:15:22;11.50;99.90
16964;DHT22;8598;50.508;10.436;2023-04-19T15:17:49;11.70;99.90
16964;DHT22;8598;50.508;10.436;2023-04-19T15:20:16;11.80;99.90
16964;DHT22;8598;50.508;10.436;2023-04-19T15:22:42;11.70;99.90
16964;DHT22;8598;50.508;10.436;2023-04-19T15:25:09;11.70;99.90
16964;DHT22;8598;50.508;10.436;2023-04-19T15:27:36;11.90;99.90
16964;DHT22;8598;50.508;10.436;2023-04-19T15:30:03;11.90;99.90
16964;DHT22;8598;50.508;10.436;2023-04-19T15:32:31;11.90;99.90
16964;DHT22;8598;50.508;10.436;2023-04-19T15:35:00;11.80;99.90
16964;DHT22;8598;50.508;10.436;2023-04-19T15:37:27;11.70;99.90
16964;DHT22;8598;50.508;10.436;2023-04-19T15:39:54;11.30;99.90